createdAt,value
2018-04-08T07:49:51.516Z,19.86
2018-04-08T07:50:27.227Z,20.25
2018-04-08T07:51:02.551Z,20.24
2018-04-08T07:51:38.048Z,20.56
2018-04-08T07:52:13.668Z,21.02
2018-04-08T07:52:49.065Z,21.09
2018-04-08T07:53:24.400Z,21.13
2018-04-08T07:53:59.692Z,21.50
2018-04-08T07:54:35.921Z,21.50
2018-04-08T07:55:11.226Z,21.92
2018-04-08T07:55:46.904Z,21.90
2018-04-08T07:56:22.207Z,21.99
2018-04-08T07:56:57.629Z,21.98
2018-04-08T07:57:33.072Z,22.01
2018-04-08T07:58:08.705Z,22.16
2018-04-08T07:58:44.218Z,22.12
2018-04-08T07:59:19.493Z,22.31
2018-04-08T07:59:54.782Z,22.43
2018-04-08T08:00:30.149Z,22.27
2018-04-08T08:01:05.422Z,22.19
2018-04-08T08:01:40.845Z,22.12
2018-04-08T08:02:16.174Z,22.04
2018-04-08T08:02:51.513Z,21.79
2018-04-08T08:03:26.845Z,21.64
2018-04-08T08:04:02.170Z,21.78
2018-04-08T08:04:37.467Z,21.79
2018-04-08T08:05:14.402Z,21.85
2018-04-08T08:05:49.504Z,21.78
2018-04-08T08:06:25.065Z,21.71
2018-04-08T08:07:00.548Z,21.61
2018-04-08T08:07:36.091Z,21.59
2018-04-08T08:08:11.813Z,21.50
2018-04-08T08:08:47.278Z,21.48
2018-04-08T08:09:22.674Z,21.38
2018-04-08T08:09:58.010Z,21.29
2018-04-08T08:10:33.414Z,21.29
2018-04-08T08:11:08.735Z,21.32
2018-04-08T08:11:44.456Z,21.29
2018-04-08T08:12:19.892Z,21.23
2018-04-08T08:12:55.481Z,21.02
2018-04-08T08:13:30.925Z,20.90
2018-04-08T08:14:06.426Z,20.86
2018-04-08T08:14:42.573Z,20.86
2018-04-08T08:15:18.110Z,20.95
2018-04-08T08:15:53.536Z,21.04
2018-04-08T08:16:28.866Z,21.24
2018-04-08T08:17:04.291Z,20.76
2018-04-08T08:17:39.872Z,20.80
2018-04-08T08:18:15.450Z,20.99
2018-04-08T08:18:50.852Z,21.24
2018-04-08T08:19:26.097Z,21.41
2018-04-08T08:20:01.905Z,21.74
2018-04-08T08:20:37.545Z,21.98
2018-04-08T08:21:12.923Z,22.50
2018-04-08T08:21:48.044Z,22.77
2018-04-08T08:22:23.220Z,22.62
2018-04-08T08:22:58.694Z,22.97
2018-04-08T08:23:34.037Z,23.50
2018-04-08T08:24:09.372Z,23.42
2018-04-08T08:24:45.182Z,23.87
2018-04-08T08:25:20.653Z,24.00
2018-04-08T08:25:55.943Z,23.86
2018-04-08T08:26:31.381Z,23.77
2018-04-08T08:27:06.993Z,23.86
2018-04-08T08:27:42.772Z,23.92
2018-04-08T08:28:18.244Z,23.61
2018-04-08T08:28:53.552Z,24.02
2018-04-08T08:29:29.848Z,24.13
2018-04-08T08:30:05.304Z,24.54
2018-04-08T08:30:42.358Z,24.35
2018-04-08T08:31:17.596Z,24.95
2018-04-08T08:31:53.077Z,25.17
2018-04-08T08:32:28.280Z,25.44
2018-04-08T08:33:03.606Z,25.56
2018-04-08T08:33:40.654Z,26.32
2018-04-08T08:34:15.655Z,26.46
2018-04-08T08:34:50.974Z,26.80
2018-04-08T08:35:26.097Z,26.84
2018-04-08T08:36:01.447Z,26.72
2018-04-08T08:36:36.754Z,26.81
2018-04-08T08:37:11.786Z,27.41
2018-04-08T08:37:46.999Z,27.61
2018-04-08T08:38:22.829Z,27.94
2018-04-08T08:38:58.133Z,28.16
2018-04-08T08:39:33.653Z,28.84
2018-04-08T08:40:09.136Z,28.44
2018-04-08T08:40:47.182Z,28.82
2018-04-08T08:41:22.364Z,29.31
2018-04-08T08:41:57.707Z,28.77
2018-04-08T08:42:33.301Z,28.47
2018-04-08T08:43:08.644Z,28.26
2018-04-08T08:43:44.107Z,28.53
2018-04-08T08:44:19.457Z,28.41
2018-04-08T08:44:58.877Z,27.82
2018-04-08T08:45:34.807Z,27.64
2018-04-08T08:46:10.303Z,27.06
2018-04-08T08:46:45.813Z,27.13
2018-04-08T08:47:21.295Z,27.10
2018-04-08T08:47:56.658Z,26.36
2018-04-08T08:48:32.129Z,26.61
2018-04-08T08:49:07.477Z,27.24
2018-04-08T08:49:43.567Z,27.29
2018-04-08T08:50:18.811Z,27.41
2018-04-08T08:50:54.132Z,27.36
2018-04-08T08:51:29.657Z,27.31
2018-04-08T08:52:05.151Z,27.88
2018-04-08T08:52:40.694Z,27.76
2018-04-08T08:53:15.894Z,28.33
2018-04-08T08:53:51.220Z,28.23
2018-04-08T08:54:26.409Z,28.35
2018-04-08T08:55:02.073Z,29.26
2018-04-08T08:55:37.171Z,29.63
2018-04-08T08:56:12.835Z,30.26
2018-04-08T08:56:48.080Z,30.93
2018-04-08T08:57:23.475Z,31.75
2018-04-08T08:57:58.882Z,31.36
2018-04-08T08:58:34.096Z,30.68
2018-04-08T08:59:09.389Z,31.28
2018-04-08T08:59:44.632Z,31.05
2018-04-08T09:00:20.056Z,31.54
2018-04-08T09:00:56.743Z,31.24
2018-04-08T09:01:32.006Z,30.76
2018-04-08T09:02:07.343Z,31.15
2018-04-08T09:02:41.100Z,31.35
2018-04-08T09:03:16.729Z,30.90
2018-04-08T09:03:52.641Z,31.09
2018-04-08T09:04:30.163Z,31.26
2018-04-08T09:05:05.598Z,30.94
2018-04-08T09:05:41.752Z,30.76
2018-04-08T09:06:17.292Z,31.06
2018-04-08T09:06:54.118Z,31.38
2018-04-08T09:07:29.913Z,32.11
2018-04-08T09:08:06.542Z,32.54
2018-04-08T09:08:41.866Z,32.24
2018-04-08T09:09:20.432Z,32.22
2018-04-08T09:09:55.978Z,32.47
2018-04-08T09:10:31.215Z,32.11
2018-04-08T09:11:07.019Z,31.60
2018-04-08T09:11:42.763Z,31.08
2018-04-08T09:12:18.087Z,30.37
2018-04-08T09:12:53.606Z,30.33
2018-04-08T09:13:29.400Z,29.49
2018-04-08T09:14:04.821Z,29.55
2018-04-08T09:14:40.142Z,29.68
2018-04-08T09:15:15.466Z,29.60
2018-04-08T09:15:51.955Z,29.68
2018-04-08T09:16:27.404Z,29.63
2018-04-08T09:17:02.698Z,29.94
2018-04-08T09:17:38.620Z,29.70
2018-04-08T09:18:13.955Z,29.79
2018-04-08T09:18:49.370Z,29.92
2018-04-08T09:19:24.861Z,30.40
2018-04-08T09:20:00.191Z,30.29
2018-04-08T09:20:35.682Z,30.29
2018-04-08T09:21:11.121Z,29.87
2018-04-08T09:21:46.237Z,29.82
2018-04-08T09:22:21.592Z,29.33
2018-04-08T09:22:56.887Z,29.06
2018-04-08T09:23:32.523Z,29.33
2018-04-08T09:24:08.346Z,28.56
2018-04-08T09:24:45.254Z,28.50
2018-04-08T09:25:22.268Z,28.04
2018-04-08T09:25:57.698Z,28.31
2018-04-08T09:26:32.825Z,28.33
2018-04-08T09:27:08.230Z,28.60
2018-04-08T09:27:44.987Z,28.75
2018-04-08T09:28:20.217Z,29.04
2018-04-08T09:28:55.737Z,29.04
2018-04-08T09:29:31.358Z,28.84
2018-04-08T09:30:06.664Z,28.69
2018-04-08T09:30:45.693Z,28.80
2018-04-08T09:31:21.254Z,28.63
2018-04-08T09:31:56.704Z,28.65
2018-04-08T09:32:32.093Z,28.41
2018-04-08T09:33:07.414Z,27.80
2018-04-08T09:33:43.701Z,27.53
2018-04-08T09:34:18.960Z,27.23
2018-04-08T09:34:54.203Z,27.20
2018-04-08T09:35:29.849Z,27.14
2018-04-08T09:36:04.943Z,27.06
2018-04-08T09:36:41.127Z,27.01
2018-04-08T09:37:16.429Z,27.32
2018-04-08T09:37:51.757Z,27.39
2018-04-08T09:38:27.251Z,27.26
2018-04-08T09:39:03.487Z,27.31
2018-04-08T09:39:39.209Z,27.20
2018-04-08T09:40:14.747Z,27.24
2018-04-08T09:40:50.056Z,27.39
2018-04-08T09:41:25.510Z,27.41
2018-04-08T09:42:00.809Z,27.32
2018-04-08T09:42:36.353Z,27.09
2018-04-08T09:43:11.543Z,27.32
2018-04-08T09:43:47.004Z,27.20
2018-04-08T09:44:22.795Z,27.50
2018-04-08T09:44:58.432Z,27.67
2018-04-08T09:45:34.044Z,27.36
2018-04-08T09:46:09.260Z,27.53
2018-04-08T09:46:44.569Z,27.59
2018-04-08T09:47:20.004Z,27.96
2018-04-08T09:47:55.576Z,27.88
2018-04-08T09:48:31.084Z,27.76
2018-04-08T09:49:06.378Z,28.14
2018-04-08T09:49:41.823Z,28.33
2018-04-08T09:50:17.445Z,28.31
2018-04-08T09:50:53.064Z,28.59
2018-04-08T09:51:28.290Z,28.53
2018-04-08T09:52:03.506Z,28.40
2018-04-08T09:52:39.009Z,28.50
2018-04-08T09:53:14.559Z,28.56
2018-04-08T09:53:49.745Z,28.72
2018-04-08T09:54:25.399Z,28.68
2018-04-08T09:55:00.697Z,28.84
2018-04-08T09:55:36.249Z,29.22
2018-04-08T09:56:11.859Z,28.93
2018-04-08T09:56:47.075Z,29.28
2018-04-08T09:57:22.463Z,29.35
2018-04-08T09:57:57.692Z,29.82
2018-04-08T09:58:33.132Z,30.03
2018-04-08T09:59:08.562Z,30.23
2018-04-08T09:59:44.693Z,30.59
2018-04-08T10:00:20.146Z,31.08
2018-04-08T10:00:55.445Z,31.01
2018-04-08T10:01:30.891Z,31.55
2018-04-08T10:02:06.412Z,32.25
2018-04-08T10:02:41.933Z,32.73
2018-04-08T10:03:17.225Z,33.60
2018-04-08T10:03:52.264Z,34.22
2018-04-08T10:04:27.650Z,34.98
2018-04-08T10:05:03.174Z,35.51
2018-04-08T10:05:39.283Z,35.39
2018-04-08T10:06:14.455Z,35.15
2018-04-08T10:06:49.697Z,35.21
2018-04-08T10:07:25.131Z,34.89
2018-04-08T10:08:00.562Z,35.20
2018-04-08T10:08:35.879Z,34.36
2018-04-08T10:09:11.377Z,34.38
2018-04-08T10:09:46.700Z,34.86
2018-04-08T10:10:22.117Z,34.66
2018-04-08T10:10:57.577Z,35.32
2018-04-08T10:11:33.323Z,36.23
2018-04-08T10:12:08.673Z,35.70
2018-04-08T10:12:43.998Z,36.54
2018-04-08T10:13:19.558Z,36.92
2018-04-08T10:13:54.889Z,36.95
2018-04-08T10:14:30.233Z,35.51
2018-04-08T10:15:05.354Z,35.50
2018-04-08T10:15:40.982Z,36.35
2018-04-08T10:16:16.218Z,35.76
2018-04-08T10:16:51.558Z,35.81
2018-04-08T10:17:26.663Z,35.95
2018-04-08T10:18:03.584Z,35.26
2018-04-08T10:18:39.111Z,35.01
2018-04-08T10:19:14.776Z,34.89
2018-04-08T10:19:50.380Z,34.39
2018-04-08T10:20:25.459Z,34.11
2018-04-08T10:21:00.851Z,33.33
2018-04-08T10:21:36.319Z,32.98
2018-04-08T10:22:11.632Z,32.30
2018-04-08T10:22:46.876Z,32.02
2018-04-08T10:23:22.345Z,31.55
2018-04-08T10:23:57.650Z,30.94
2018-04-08T10:24:33.032Z,30.91
2018-04-08T10:25:08.309Z,30.80
2018-04-08T10:25:43.923Z,30.78
2018-04-08T10:26:19.187Z,31.02
2018-04-08T10:26:54.596Z,31.15
2018-04-08T10:27:29.925Z,31.26
2018-04-08T10:28:05.219Z,30.67
2018-04-08T10:28:40.454Z,30.76
2018-04-08T10:29:15.746Z,30.80
2018-04-08T10:29:51.132Z,30.98
2018-04-08T10:30:26.940Z,31.12
2018-04-08T10:31:02.282Z,30.91
2018-04-08T10:31:37.412Z,30.76
2018-04-08T10:32:13.147Z,31.15
2018-04-08T10:32:48.476Z,30.98
2018-04-08T10:33:23.688Z,30.16
2018-04-08T10:33:58.897Z,29.77
2018-04-08T10:34:34.376Z,30.24
2018-04-08T10:35:09.676Z,30.50
2018-04-08T10:35:45.512Z,30.86
2018-04-08T10:36:20.870Z,30.50
2018-04-08T10:36:56.384Z,29.97
2018-04-08T10:37:31.716Z,30.40
2018-04-08T10:38:07.619Z,30.56
2018-04-08T10:38:43.259Z,30.50
2018-04-08T10:39:18.589Z,30.56
2018-04-08T10:39:53.702Z,30.46
2018-04-08T10:40:28.932Z,30.38
2018-04-08T10:41:04.152Z,29.52
2018-04-08T10:41:39.436Z,29.08
2018-04-08T10:42:14.878Z,29.29
2018-04-08T10:42:50.121Z,29.66
2018-04-08T10:43:25.459Z,29.70
2018-04-08T10:44:01.078Z,29.71
2018-04-08T10:44:36.398Z,29.31
2018-04-08T10:45:11.797Z,29.07
2018-04-08T10:45:49.136Z,29.31
2018-04-08T10:46:24.593Z,29.82
2018-04-08T10:46:59.797Z,29.94
2018-04-08T10:47:35.643Z,29.63
2018-04-08T10:48:10.846Z,29.55
2018-04-08T10:48:47.003Z,29.78
2018-04-08T10:49:22.534Z,29.87
2018-04-08T10:49:58.165Z,29.77
2018-04-08T10:50:33.265Z,29.31
2018-04-08T10:51:08.687Z,29.60
2018-04-08T10:51:44.317Z,29.55
2018-04-08T10:52:19.874Z,29.62
2018-04-08T10:52:55.183Z,29.56
2018-04-08T10:53:30.744Z,29.63
2018-04-08T10:54:06.042Z,29.57
2018-04-08T10:54:41.375Z,29.38
2018-04-08T10:55:16.676Z,29.33
2018-04-08T10:55:52.214Z,29.50
2018-04-08T10:56:27.650Z,29.45
2018-04-08T10:57:02.905Z,29.49
2018-04-08T10:57:38.624Z,29.29
2018-04-08T10:58:14.082Z,29.25
2018-04-08T10:58:49.517Z,29.22
2018-04-08T10:59:25.048Z,29.50
2018-04-08T11:00:00.364Z,29.57
2018-04-08T11:00:36.207Z,29.34
2018-04-08T11:01:11.405Z,29.03
2018-04-08T11:01:46.868Z,29.01
2018-04-08T11:02:22.420Z,28.85
2018-04-08T11:02:57.651Z,29.10
2018-04-08T11:03:33.256Z,29.28
2018-04-08T11:04:08.472Z,29.25
2018-04-08T11:04:44.143Z,29.31
2018-04-08T11:05:19.645Z,29.10
2018-04-08T11:05:56.757Z,29.22
2018-04-08T11:06:32.182Z,29.29
2018-04-08T11:07:07.598Z,29.41
2018-04-08T11:07:43.457Z,29.28
2018-04-08T11:08:18.741Z,28.87
2018-04-08T11:08:53.781Z,28.70
2018-04-08T11:09:28.885Z,29.06
2018-04-08T11:10:03.946Z,28.88
2018-04-08T11:10:40.044Z,28.63
2018-04-08T11:11:15.589Z,28.33
2018-04-08T11:11:50.774Z,28.44
2018-04-08T11:12:26.334Z,28.48
2018-04-08T11:13:01.635Z,28.04
2018-04-08T11:13:36.962Z,28.14
2018-04-08T11:14:12.783Z,28.03
2018-04-08T11:14:48.433Z,28.11
2018-04-08T11:15:23.733Z,28.21
2018-04-08T11:15:58.974Z,27.99
2018-04-08T11:16:34.127Z,27.80
2018-04-08T11:17:09.279Z,27.73
2018-04-08T11:17:44.615Z,27.80
2018-04-08T11:18:20.156Z,28.01
2018-04-08T11:18:55.655Z,27.85
2018-04-08T11:19:30.912Z,27.67
2018-04-08T11:20:06.100Z,27.76
2018-04-08T11:20:41.561Z,27.80
2018-04-08T11:21:16.962Z,28.01
2018-04-08T11:21:52.492Z,28.31
2018-04-08T11:22:27.725Z,28.35
2018-04-08T11:23:03.052Z,28.56
2018-04-08T11:23:38.451Z,28.82
2018-04-08T11:24:13.718Z,28.69
2018-04-08T11:24:48.914Z,28.53
2018-04-08T11:25:24.453Z,28.82
2018-04-08T11:25:59.961Z,28.95
2018-04-08T11:26:35.414Z,29.06
2018-04-08T11:27:10.690Z,29.13
2018-04-08T11:27:45.869Z,29.35
2018-04-08T11:28:21.474Z,29.50
2018-04-08T11:28:57.216Z,29.52
2018-04-08T11:29:32.724Z,29.28
2018-04-08T11:30:08.284Z,29.28
2018-04-08T11:30:44.104Z,29.34
2018-04-08T11:31:19.458Z,29.23
2018-04-08T11:31:54.973Z,29.01
2018-04-08T11:32:30.215Z,28.73
2018-04-08T11:33:05.415Z,29.00
2018-04-08T11:33:40.751Z,29.07
2018-04-08T11:34:16.349Z,29.10
2018-04-08T11:34:51.607Z,28.97
2018-04-08T11:35:26.995Z,28.81
2018-04-08T11:36:02.328Z,28.91
2018-04-08T11:36:37.728Z,28.72
2018-04-08T11:37:13.094Z,28.72
2018-04-08T11:37:48.999Z,28.78
2018-04-08T11:38:24.139Z,28.62
2018-04-08T11:38:59.568Z,28.53
2018-04-08T11:39:34.983Z,28.40
2018-04-08T11:40:10.396Z,28.23
2018-04-08T11:40:45.832Z,28.36
2018-04-08T11:41:20.924Z,28.04
2018-04-08T11:41:56.155Z,28.16
2018-04-08T11:42:31.579Z,28.31
2018-04-08T11:43:06.723Z,28.40
2018-04-08T11:43:43.618Z,28.44
2018-04-08T11:44:19.299Z,28.40
2018-04-08T11:44:54.621Z,28.41
2018-04-08T11:45:29.872Z,28.23
2018-04-08T11:46:05.114Z,28.44
2018-04-08T11:46:40.851Z,28.44
2018-04-08T11:47:16.323Z,28.46
2018-04-08T11:47:51.720Z,28.29
2018-04-08T11:48:27.029Z,28.35
2018-04-08T11:49:02.257Z,28.31
2018-04-08T11:49:37.560Z,28.23
2018-04-08T11:50:13.008Z,27.91
2018-04-08T11:50:49.356Z,27.85
2018-04-08T11:51:25.087Z,27.84
2018-04-08T11:52:00.496Z,27.89
2018-04-08T11:52:36.082Z,27.88
2018-04-08T11:53:11.489Z,28.03
2018-04-08T11:53:46.917Z,27.92
2018-04-08T11:54:22.236Z,27.77
2018-04-08T11:54:57.767Z,27.84
2018-04-08T11:55:33.193Z,27.98
2018-04-08T11:56:08.821Z,27.96
2018-04-08T11:56:45.329Z,27.91
2018-04-08T11:57:20.697Z,27.79
2018-04-08T11:57:56.195Z,27.74
2018-04-08T11:58:31.637Z,27.79
2018-04-08T11:59:06.956Z,27.70
2018-04-08T11:59:42.481Z,27.74
2018-04-08T12:00:17.715Z,27.71
2018-04-08T12:00:54.565Z,27.39
2018-04-08T12:01:29.880Z,27.54
2018-04-08T12:02:05.134Z,27.57
2018-04-08T12:02:40.437Z,27.42
2018-04-08T12:03:16.065Z,27.53
2018-04-08T12:03:51.176Z,27.35
2018-04-08T12:04:26.606Z,27.46
2018-04-08T12:05:04.708Z,27.39
2018-04-08T12:05:39.856Z,27.47
2018-04-08T12:06:14.980Z,27.47
2018-04-08T12:06:50.215Z,27.64
2018-04-08T12:07:25.678Z,27.70
2018-04-08T12:08:00.824Z,27.85
2018-04-08T12:08:36.242Z,27.84
2018-04-08T12:09:11.579Z,27.89
2018-04-08T12:09:47.002Z,27.74
2018-04-08T12:10:22.670Z,27.76
2018-04-08T12:10:59.047Z,27.70
2018-04-08T12:11:34.377Z,27.70
2018-04-08T12:12:10.094Z,27.80
2018-04-08T12:12:45.651Z,27.67
2018-04-08T12:13:20.853Z,27.61
2018-04-08T12:13:56.288Z,27.74
2018-04-08T12:14:31.588Z,27.64
2018-04-08T12:15:07.066Z,27.70
2018-04-08T12:15:42.297Z,27.73
2018-04-08T12:16:17.826Z,27.76
2018-04-08T12:16:53.084Z,27.99
2018-04-08T12:17:28.644Z,27.96
2018-04-08T12:18:03.937Z,28.19
2018-04-08T12:18:39.575Z,28.26
2018-04-08T12:19:14.766Z,28.33
2018-04-08T12:19:49.801Z,28.36
2018-04-08T12:20:25.228Z,28.35
2018-04-08T12:21:00.788Z,28.41
2018-04-08T12:21:35.996Z,28.35
2018-04-08T12:22:11.444Z,28.40
2018-04-08T12:22:46.906Z,28.41
2018-04-08T12:23:22.243Z,28.41
2018-04-08T12:23:57.526Z,28.38
2018-04-08T12:24:32.866Z,28.43
2018-04-08T12:25:08.472Z,28.29
2018-04-08T12:25:43.814Z,28.25
2018-04-08T12:26:19.241Z,28.13
2018-04-08T12:26:55.268Z,28.16
2018-04-08T12:27:30.605Z,28.23
2018-04-08T12:28:05.935Z,28.01
2018-04-08T12:28:41.304Z,28.16
2018-04-08T12:29:16.626Z,28.22
2018-04-08T12:29:52.049Z,28.41
2018-04-08T12:30:27.680Z,28.44
2018-04-08T12:31:03.206Z,28.41
2018-04-08T12:31:38.532Z,28.35
2018-04-08T12:32:13.795Z,28.23
2018-04-08T12:32:49.334Z,28.17
2018-04-08T12:33:24.628Z,28.22
2018-04-08T12:34:00.158Z,28.33
2018-04-08T12:34:35.550Z,28.41
2018-04-08T12:35:10.881Z,28.47
2018-04-08T12:35:46.272Z,28.46
2018-04-08T12:36:21.539Z,28.51
2018-04-08T12:36:56.962Z,28.53
2018-04-08T12:37:32.647Z,28.56
2018-04-08T12:38:08.065Z,28.68
2018-04-08T12:38:43.522Z,28.73
2018-04-08T12:39:18.933Z,28.70
2018-04-08T12:39:54.184Z,28.78
2018-04-08T12:40:29.694Z,28.81
2018-04-08T12:41:05.235Z,28.82
2018-04-08T12:41:40.331Z,28.48
2018-04-08T12:42:15.784Z,28.28
2018-04-08T12:42:51.230Z,28.44
2018-04-08T12:43:26.772Z,28.11
2018-04-08T12:44:02.166Z,28.07
2018-04-08T12:44:37.514Z,28.10
2018-04-08T12:45:12.750Z,28.17
2018-04-08T12:45:48.483Z,28.03
2018-04-08T12:46:23.978Z,28.19
2018-04-08T12:46:59.120Z,28.21
2018-04-08T12:47:34.447Z,28.28
2018-04-08T12:48:09.892Z,28.31
2018-04-08T12:48:46.723Z,28.56
2018-04-08T12:49:22.482Z,28.62
2018-04-08T12:49:57.792Z,28.78
2018-04-08T12:50:32.825Z,28.81
2018-04-08T12:51:08.163Z,28.95
2018-04-08T12:51:43.775Z,29.00
2018-04-08T12:52:19.349Z,28.97
2018-04-08T12:52:54.672Z,29.04
2018-04-08T12:53:30.204Z,29.01
2018-04-08T12:54:05.750Z,28.88
2018-04-08T12:54:41.244Z,28.60
2018-04-08T12:55:16.510Z,28.72
2018-04-08T12:55:52.019Z,28.66
2018-04-08T12:56:27.354Z,28.72
2018-04-08T12:57:02.567Z,28.59
2018-04-08T12:57:37.857Z,28.66
2018-04-08T12:58:13.261Z,28.58
2018-04-08T12:58:49.954Z,28.62
2018-04-08T12:59:25.460Z,28.75
2018-04-08T13:00:01.004Z,28.78
2018-04-08T13:00:38.400Z,28.82
2018-04-08T13:01:13.643Z,28.80
2018-04-08T13:01:48.854Z,28.58
2018-04-08T13:02:24.123Z,28.33
2018-04-08T13:02:59.233Z,28.41
2018-04-08T13:03:34.660Z,28.46
2018-04-08T13:04:09.929Z,28.51
2018-04-08T13:04:45.278Z,28.36
2018-04-08T13:05:20.914Z,28.53
2018-04-08T13:05:56.452Z,28.66
2018-04-08T13:06:31.644Z,28.80
2018-04-08T13:07:07.178Z,28.77
2018-04-08T13:07:42.598Z,28.84
2018-04-08T13:08:18.165Z,28.66
2018-04-08T13:08:53.421Z,28.58
2018-04-08T13:09:28.866Z,28.63
2018-04-08T13:10:04.170Z,28.68
2018-04-08T13:10:41.932Z,28.59
2018-04-08T13:11:17.333Z,28.73
2018-04-08T13:11:52.668Z,28.75
2018-04-08T13:12:28.422Z,28.84
2018-04-08T13:13:03.774Z,28.91
2018-04-08T13:13:39.194Z,28.97
2018-04-08T13:14:14.868Z,28.91
2018-04-08T13:14:50.173Z,28.51
2018-04-08T13:15:25.411Z,28.60
2018-04-08T13:16:01.134Z,28.54
2018-04-08T13:16:36.817Z,28.59
2018-04-08T13:17:12.056Z,28.68
2018-04-08T13:17:47.817Z,28.81
2018-04-08T13:18:23.033Z,28.93
2018-04-08T13:18:58.373Z,29.01
2018-04-08T13:19:34.166Z,28.73
2018-04-08T13:20:09.407Z,28.87
2018-04-08T13:20:44.797Z,28.93
2018-04-08T13:21:20.151Z,29.08
2018-04-08T13:21:55.448Z,29.06
2018-04-08T13:22:30.947Z,28.97
2018-04-08T13:23:06.355Z,29.07
2018-04-08T13:23:42.085Z,29.00
2018-04-08T13:24:17.530Z,29.10
2018-04-08T13:24:52.990Z,29.00
2018-04-08T13:25:28.827Z,28.95
2018-04-08T13:26:04.385Z,29.08
2018-04-08T13:26:40.333Z,29.03
2018-04-08T13:27:16.631Z,29.08
2018-04-08T13:27:52.143Z,29.08
2018-04-08T13:28:27.798Z,29.03
2018-04-08T13:29:03.511Z,29.10
2018-04-08T13:29:39.079Z,29.03
2018-04-08T13:30:14.610Z,28.75
2018-04-08T13:30:52.869Z,28.78
2018-04-08T13:31:28.284Z,28.75
2018-04-08T13:32:03.631Z,28.73
2018-04-08T13:32:39.082Z,28.65
2018-04-08T13:33:14.491Z,28.51
2018-04-08T13:33:50.601Z,28.35
2018-04-08T13:34:25.948Z,28.28
2018-04-08T13:35:01.251Z,28.14
2018-04-08T13:35:36.393Z,28.13
2018-04-08T13:36:11.707Z,27.91
2018-04-08T13:36:47.071Z,27.92
2018-04-08T13:37:22.388Z,28.07
2018-04-08T13:37:57.733Z,28.21
2018-04-08T13:38:32.993Z,28.21
2018-04-08T13:39:08.506Z,28.40
2018-04-08T13:39:43.802Z,28.44
2018-04-08T13:40:21.346Z,28.44
2018-04-08T13:40:57.618Z,28.41
2018-04-08T13:41:36.988Z,28.44
2018-04-08T13:42:14.421Z,28.36
2018-04-08T13:42:51.389Z,28.23
2018-04-08T13:43:26.846Z,27.98
2018-04-08T13:44:02.413Z,27.98
2018-04-08T13:44:38.013Z,28.06
2018-04-08T13:45:13.342Z,28.13
2018-04-08T13:45:49.457Z,28.17
2018-04-08T13:46:25.007Z,28.11
2018-04-08T13:47:00.306Z,27.98
2018-04-08T13:47:36.217Z,28.07
2018-04-08T13:48:11.599Z,28.03
2018-04-08T13:48:47.160Z,28.10
2018-04-08T13:49:22.683Z,28.04
2018-04-08T13:49:57.998Z,28.09
2018-04-08T13:50:33.476Z,28.06
2018-04-08T13:51:08.825Z,28.19
2018-04-08T13:51:44.566Z,28.26
2018-04-08T13:52:20.028Z,28.17
2018-04-08T13:52:55.426Z,28.13
2018-04-08T13:53:31.124Z,27.92
2018-04-08T13:54:06.673Z,27.84
2018-04-08T13:54:41.932Z,27.80
2018-04-08T13:55:17.402Z,27.74
2018-04-08T13:55:52.827Z,27.84
2018-04-08T13:56:28.159Z,27.86
2018-04-08T13:57:03.383Z,27.88
2018-04-08T13:57:38.733Z,27.85
2018-04-08T13:58:14.345Z,27.88
2018-04-08T13:58:49.670Z,27.70
2018-04-08T13:59:25.001Z,27.61
2018-04-08T14:00:00.410Z,27.51
2018-04-08T14:00:36.265Z,27.54
2018-04-08T14:01:11.782Z,27.59
2018-04-08T14:01:47.263Z,27.77
2018-04-08T14:02:22.715Z,27.77
2018-04-08T14:02:58.146Z,27.70
2018-04-08T14:03:33.590Z,27.71
2018-04-08T14:04:09.116Z,27.69
2018-04-08T14:04:44.634Z,27.69
2018-04-08T14:05:19.691Z,27.28
2018-04-08T14:05:55.000Z,27.38
2018-04-08T14:06:30.716Z,27.33
2018-04-08T14:07:06.237Z,27.35
2018-04-08T14:07:41.731Z,27.29
2018-04-08T14:08:17.131Z,27.21
2018-04-08T14:08:52.448Z,27.13
2018-04-08T14:09:27.950Z,27.21
2018-04-08T14:10:03.185Z,27.09
2018-04-08T14:10:39.475Z,27.11
2018-04-08T14:11:14.637Z,27.14
2018-04-08T14:11:50.479Z,27.10
2018-04-08T14:12:25.837Z,27.19
2018-04-08T14:13:01.268Z,27.23
2018-04-08T14:13:36.922Z,27.21
2018-04-08T14:14:12.535Z,27.21
2018-04-08T14:14:47.797Z,27.23
2018-04-08T14:15:23.016Z,27.32
2018-04-08T14:15:58.345Z,27.36
2018-04-08T14:16:33.950Z,27.32
2018-04-08T14:17:09.204Z,27.41
2018-04-08T14:17:44.675Z,27.36
2018-04-08T14:18:19.822Z,27.39
2018-04-08T14:18:55.275Z,27.50
2018-04-08T14:19:30.530Z,27.48
2018-04-08T14:20:06.209Z,27.58
2018-04-08T14:20:41.588Z,27.57
2018-04-08T14:21:17.028Z,27.70
2018-04-08T14:21:52.518Z,27.76
2018-04-08T14:22:27.877Z,27.73
2018-04-08T14:23:04.043Z,27.79
2018-04-08T14:23:39.148Z,27.77
2018-04-08T14:24:14.428Z,27.77
2018-04-08T14:24:49.948Z,27.77
2018-04-08T14:25:25.574Z,27.70
2018-04-08T14:26:03.590Z,27.73
2018-04-08T14:26:43.350Z,27.59
2018-04-08T14:27:18.605Z,27.64
2018-04-08T14:27:54.038Z,27.77
2018-04-08T14:28:29.940Z,27.69
2018-04-08T14:29:05.404Z,27.69
2018-04-08T14:29:41.403Z,27.76
2018-04-08T14:30:16.762Z,27.66
2018-04-08T14:30:54.279Z,27.70
2018-04-08T14:31:29.836Z,27.71
2018-04-08T14:32:05.322Z,27.57
2018-04-08T14:32:41.006Z,27.54
2018-04-08T14:33:16.644Z,27.43
2018-04-08T14:33:51.904Z,27.50
2018-04-08T14:34:27.161Z,27.42
2018-04-08T14:35:02.596Z,27.51
2018-04-08T14:35:39.304Z,27.46
2018-04-08T14:36:14.858Z,27.53
2018-04-08T14:36:50.282Z,27.54
2018-04-08T14:37:25.420Z,27.47
2018-04-08T14:38:00.632Z,27.48
2018-04-08T14:38:36.404Z,27.50
2018-04-08T14:39:11.909Z,27.50
2018-04-08T14:39:48.272Z,27.38
2018-04-08T14:40:23.619Z,27.38
2018-04-08T14:41:00.296Z,27.32
2018-04-08T14:41:35.611Z,27.29
2018-04-08T14:42:11.046Z,27.41
2018-04-08T14:42:47.461Z,27.59
2018-04-08T14:43:22.917Z,27.64
2018-04-08T14:43:58.334Z,27.70
2018-04-08T14:44:33.584Z,27.71
2018-04-08T14:45:10.596Z,27.76
2018-04-08T14:45:46.493Z,27.76
2018-04-08T14:46:21.810Z,27.77
2018-04-08T14:46:57.297Z,27.84
2018-04-08T14:47:32.534Z,27.91
2018-04-08T14:48:08.015Z,27.86
2018-04-08T14:48:43.250Z,27.84
2018-04-08T14:49:19.026Z,27.85
2018-04-08T14:49:55.097Z,27.91
2018-04-08T14:50:30.758Z,27.73
2018-04-08T14:51:06.182Z,27.91
2018-04-08T14:51:43.377Z,27.89
2018-04-08T14:52:19.051Z,27.91
2018-04-08T14:52:54.711Z,27.88
2018-04-08T14:53:29.993Z,27.85
2018-04-08T14:54:05.542Z,27.92
2018-04-08T14:54:41.485Z,27.89
2018-04-08T14:55:17.004Z,27.91
2018-04-08T14:55:52.356Z,27.91
2018-04-08T14:56:27.592Z,27.80
2018-04-08T14:57:02.800Z,27.70
2018-04-08T14:57:38.447Z,27.69
2018-04-08T14:58:13.907Z,27.70
2018-04-08T14:58:49.050Z,27.76
2018-04-08T14:59:24.667Z,27.76
2018-04-08T15:00:00.127Z,27.69
2018-04-08T15:00:35.441Z,27.77
2018-04-08T15:01:10.679Z,27.70
2018-04-08T15:01:46.799Z,27.71
2018-04-08T15:02:21.957Z,27.76
2018-04-08T15:02:57.668Z,27.85
2018-04-08T15:03:33.281Z,27.77
2018-04-08T15:04:08.848Z,27.70
2018-04-08T15:04:44.403Z,27.84
2018-04-08T15:05:20.168Z,27.84
2018-04-08T15:05:55.300Z,27.85
2018-04-08T15:06:30.639Z,27.82
2018-04-08T15:07:06.178Z,27.71
2018-04-08T15:07:41.682Z,27.73
2018-04-08T15:08:17.359Z,27.51
2018-04-08T15:08:52.462Z,27.47
2018-04-08T15:09:27.910Z,27.29
2018-04-08T15:10:02.906Z,27.21
2018-04-08T15:10:39.193Z,27.24
2018-04-08T15:11:14.460Z,27.28
2018-04-08T15:11:50.843Z,27.23
2018-04-08T15:12:25.965Z,27.14
2018-04-08T15:13:01.447Z,27.05
2018-04-08T15:13:36.844Z,27.21
2018-04-08T15:14:12.194Z,27.17
2018-04-08T15:14:47.519Z,26.99
2018-04-08T15:15:22.868Z,27.05
2018-04-08T15:15:58.101Z,27.02
2018-04-08T15:16:33.562Z,27.13
2018-04-08T15:17:08.898Z,27.21
2018-04-08T15:17:44.238Z,27.28
2018-04-08T15:18:19.560Z,27.26
2018-04-08T15:18:54.697Z,27.14
2018-04-08T15:19:30.291Z,27.13
2018-04-08T15:20:05.972Z,27.04
2018-04-08T15:20:41.912Z,27.05
2018-04-08T15:21:17.293Z,27.09
2018-04-08T15:21:52.423Z,27.01
2018-04-08T15:22:27.689Z,26.99
2018-04-08T15:23:02.860Z,27.05
2018-04-08T15:23:38.167Z,27.10
2018-04-08T15:24:13.470Z,27.11
2018-04-08T15:24:48.735Z,27.19
2018-04-08T15:25:24.181Z,27.35
2018-04-08T15:25:59.739Z,27.35
2018-04-08T15:26:34.976Z,27.29
2018-04-08T15:27:11.046Z,27.41